Schedule Details


Flight Number: CTN367
Departure: Alexander The Great (LWSK) at 05:45
Arrival: Franjo Tudman (LDZA) at 07:05
Route: GOSTI P92 MAVAR UY400 RETRA UL604 BOSNA UL608 KOMAR L187 TEBLI

Weather Information
LWSK 242200Z 11002KT CAVOK 17/16 Q1019 NOSIG
LDZA 242200Z 01003KT 9999 FEW045 22/18 Q1021 NOSIG
Schedule Frequency

Route Map